This is the latest recevied weather packets stored in our database for station/object N7BTW-13. If no packets are shown the sender has not sent any weather packets the latest 10 day(s).
| Time | Temp. | Humidity | Pressure | Rain* | Wind** | Luminosity | Snow |
|---|---|---|---|---|---|---|---|
| 1777225806 | 17.22° C | 48% | 1010.8 hPa | 0 mm | - | - | - |
| 1777225209 | 17.22° C | 52% | 1010.8 hPa | 0 mm | - | - | - |
| 1777224606 | 16.67° C | 53% | 1010.8 hPa | 0 mm | - | - | - |
| 1777224006 | 16.11° C | 56% | 1010.7 hPa | 0 mm | - | - | - |
| 1777223406 | 15.56° C | 57% | 1010.7 hPa | 0 mm | - | - | - |
| 1777222809 | 15° C | 57% | 1010.6 hPa | 0 mm | - | - | - |
| 1777222210 | 14.44° C | 59% | 1010.6 hPa | 0 mm | - | - | - |
| 1777221609 | 13.89° C | 62% | 1010.6 hPa | 0 mm | - | - | - |
| 1777221008 | 13.89° C | 62% | 1010.6 hPa | 0 mm | - | - | - |
| 1777220409 | 13.33° C | 62% | 1010.6 hPa | 0 mm | - | - | - |
| 1777219807 | 13.33° C | 65% | 1010.6 hPa | 0 mm | - | - | - |
| 1777219211 | 12.22° C | 69% | 1010.6 hPa | 0 mm | - | - | - |
| 1777218607 | 11.11° C | 68% | 1010.5 hPa | 0 mm | - | - | - |
| 1777218011 | 11.11° C | 69% | 1010.4 hPa | 0 mm | - | - | - |
| 1777217406 | 10° C | 73% | 1010.4 hPa | 0 mm | - | - | - |
| 1777216808 | 7.22° C | 86% | 1010.4 hPa | 0 mm | - | - | - |
| 1777216207 | 5° C | 96% | 1010.4 hPa | 0 mm | - | - | - |
| 1777215607 | 4.44° C | 98% | 1010.4 hPa | 0 mm | - | - | - |
| 1777215008 | 3.89° C | 99% | 1010.2 hPa | 0 mm | - | - | - |
| 1777214409 | 2.78° C | 99% | 1010.1 hPa | 0 mm | - | - | - |
| 1777213807 | 2.22° C | 99% | 1010.1 hPa | 0 mm | - | - | - |
| 1777213206 | 1.67° C | 99% | 1010 hPa | 0 mm | - | - | - |
| 1777212612 | 1.11° C | 98% | 1009.9 hPa | 0 mm | - | - | - |
| 1777212007 | 1.11° C | 98% | 1009.7 hPa | 0 mm | - | - | - |
| 1777211407 | 1.11° C | 98% | 1009.7 hPa | 0 mm | - | - | - |
* Rain latest hour (hover to see other rain measurements)
** Current wind speed in m/s (hover to see current wind gust speed)